WAPP/AMQ METAR and TAF weather

Enter ICAO airport designator
Station Type Date Time Source
WAPP METAR 2023/02/04 01:30 UTC NOAA

WAPP 040130Z 35011G21KT 320V020 9999 SCT017 28/23 Q1008 NOSIG


Station Type Date Time Source
WAPP Decoded METAR 2023/02/04 01:30 UTC NOAA

Ambon / Pattimura, Indonesia (WAPP) 03-42S 128-05E 12M
Feb 03, 2023 - 08:30 PM EST / 2023.02.04 0130 UTC
Wind: from the N (350 degrees) at 13 MPH (11 KT) gusting to 24 MPH (21 KT) (direction variable):0
Visibility: greater than 7 mile(s):0
Sky conditions: partly cloudy
Temperature: 82 F (28 C)
Dew Point: 73 F (23 C)
Relative Humidity: 74%
Pressure (altimeter): 29.77 in. Hg (1008 hPa)
ob: WAPP 040130Z 35011G21KT 320V020 9999 SCT017 28/23 Q1008 NOSIG
cycle: 1

Station Type Date Time Source
WAPP TAF 2015/06/30 00:57 UTC NOAA

TAF WAPP 302300Z 0100/0124 34006KT 9999 SCT018
TEMPO 0101/0104 7000 -RA BKN017
BECMG 0105/0107 21006KT
BECMG 0109/0111 32006KT

Example: see airport list